Time;durP1;ratioP1;P1;durP2;ratioP2;P2;SDS_P1;SDS_P2;PMS_P1;PMS_P2;Temp;Humidity;BMP_temperature;BMP_pressure;BME280_temperature;BME280_humidity;BME280_pressure;Samples;Min_cycle;Max_cycle;Signal;HPM_P1;HPM_P2
2021/12/17 00:00:19;;;;;;;;;;;;;;;14.77;68.21;103679.88;1054008;28;810;-55
2021/12/17 00:01:10;;;;;;;;;;;;;;;14.78;67.69;103683.41;1053982;28;773;-56
2021/12/17 00:04:02;;;;;;;;;;;;;;;14.77;68.37;103682.53;1052760;28;750;-57
2021/12/17 00:05:05;;;;;;;;;;;;;;;14.77;67.93;103687.91;1049366;28;980;-56
2021/12/17 00:06:13;;;;;;;;;;;;;;;14.77;67.53;103685.22;1049803;28;764;-57
2021/12/17 00:07:03;;;;;;;;;;;;;;;14.77;68.01;103690.59;1049672;28;797;-57
2021/12/17 00:07:53;;;;;;;;;;;;;;;14.77;68.37;103690.59;1046426;28;1810;-55
2021/12/17 00:08:44;;;;;;;;;;;;;;;14.77;68.02;103687.91;1045003;28;677;-54
2021/12/17 00:09:35;;;;;;;;;;;;;;;14.77;68.06;103685.22;1046765;28;2075;-58
2021/12/17 00:10:25;;;;;;;;;;;;;;;14.76;67.91;103694.22;1050346;28;1006;-57
2021/12/17 00:11:16;;;;;;;;;;;;;;;14.76;67.71;103691.53;1050356;28;865;-57
2021/12/17 00:12:09;;;;;;;;;;;;;;;14.76;68.48;103685.28;1050272;28;1961;-57
2021/12/17 00:12:59;;;;;;;;;;;;;;;14.77;68.15;103685.22;1048508;28;757;-56
2021/12/17 00:13:53;;;;;;;;;;;;;;;14.77;68.27;103690.59;1050272;28;672;-58
2021/12/17 00:14:45;;;;;;;;;;;;;;;14.77;68.22;103681.66;1048464;28;1232;-58
2021/12/17 00:15:36;;;;;;;;;;;;;;;14.76;68.37;103680.78;1048449;28;792;-57
2021/12/17 00:16:32;;;;;;;;;;;;;;;14.76;68.26;103682.59;1049113;28;637;-56
2021/12/17 00:17:27;;;;;;;;;;;;;;;14.74;68.27;103685.34;1049101;28;768;-57
2021/12/17 00:18:27;;;;;;;;;;;;;;;14.75;68.26;103697.84;1049030;28;873;-55
2021/12/17 00:19:37;;;;;;;;;;;;;;;14.74;68.41;103690.72;1049096;28;889;-57
2021/12/17 00:20:46;;;;;;;;;;;;;;;14.74;67.94;103684.47;1048838;28;673;-57
2021/12/17 00:48:54;;;;;;;;;;;;;;;14.72;68.06;103687.19;1045416;28;832;-56
2021/12/17 00:49:58;;;;;;;;;;;;;;;14.74;68.69;103687.16;1044862;28;1546;-59
2021/12/17 00:51:18;;;;;;;;;;;;;;;14.73;68.26;103688.94;1044986;28;791;-57
2021/12/17 00:52:00;;;;;;;;;;;;;;;14.74;68.53;103685.34;1045994;28;1890;-58
2021/12/17 00:52:51;;;;;;;;;;;;;;;14.71;68.18;103682.75;1044810;28;906;-57
2021/12/17 00:53:41;;;;;;;;;;;;;;;14.71;68.44;103688.13;1044393;28;809;-57
2021/12/17 00:54:34;;;;;;;;;;;;;;;14.72;68.20;103687.19;1044955;28;743;-58
2021/12/17 00:55:24;;;;;;;;;;;;;;;14.73;68.78;103683.59;1045019;28;668;-56
2021/12/17 00:56:15;;;;;;;;;;;;;;;14.72;68.64;103689.88;1044211;28;614;-58
2021/12/17 00:57:05;;;;;;;;;;;;;;;14.72;68.97;103691.69;1045945;28;763;-57
2021/12/17 00:57:56;;;;;;;;;;;;;;;14.72;68.51;103686.31;1044473;28;783;-58
2021/12/17 00:58:46;;;;;;;;;;;;;;;14.71;68.28;103680.09;1045392;28;1873;-59
2021/12/17 00:59:36;;;;;;;;;;;;;;;14.73;68.58;103688.06;1050123;28;708;-58
2021/12/17 01:00:27;;;;;;;;;;;;;;;14.73;68.42;103683.59;1050242;28;754;-58
2021/12/17 01:01:17;;;;;;;;;;;;;;;14.73;68.62;103682.72;1050088;28;874;-56
2021/12/17 01:02:08;;;;;;;;;;;;;;;14.72;68.56;103684.50;1046420;28;960;-58
2021/12/17 01:02:58;;;;;;;;;;;;;;;14.72;69.00;103678.28;1045401;28;915;-59
2021/12/17 01:03:48;;;;;;;;;;;;;;;14.72;68.50;103681.84;1045863;28;801;-58
2021/12/17 01:04:39;;;;;;;;;;;;;;;14.73;68.92;103688.06;1045321;28;815;-59
2021/12/17 01:05:29;;;;;;;;;;;;;;;14.72;68.49;103681.84;1045317;28;777;-57
2021/12/17 01:06:20;;;;;;;;;;;;;;;14.72;68.90;103687.19;1045256;28;759;-59
2021/12/17 01:07:10;;;;;;;;;;;;;;;14.71;69.04;103677.41;1045381;28;737;-59
2021/12/17 01:08:01;;;;;;;;;;;;;;;14.71;68.95;103680.09;1045021;28;745;-58
2021/12/17 01:08:51;;;;;;;;;;;;;;;14.70;68.61;103685.50;1045398;28;739;-58
2021/12/17 01:09:42;;;;;;;;;;;;;;;14.70;68.53;103686.38;1045258;28;833;-59
2021/12/17 01:10:32;;;;;;;;;;;;;;;14.71;68.63;103680.09;1045428;28;700;-58
2021/12/17 01:11:22;;;;;;;;;;;;;;;14.73;68.60;103680.03;1045458;28;657;-58
2021/12/17 01:12:13;;;;;;;;;;;;;;;14.71;68.57;103680.09;1045346;28;1977;-58
2021/12/17 01:13:03;;;;;;;;;;;;;;;14.71;68.34;103676.50;1045326;28;705;-57
2021/12/17 01:13:54;;;;;;;;;;;;;;;14.71;68.92;103680.09;1045247;28;868;-54
2021/12/17 01:14:44;;;;;;;;;;;;;;;14.71;68.19;103681.88;1045253;28;816;-52
2021/12/17 01:15:35;;;;;;;;;;;;;;;14.71;68.62;103684.56;1046549;28;789;-59
2021/12/17 01:16:25;;;;;;;;;;;;;;;14.71;68.58;103680.09;1045159;28;689;-56
2021/12/17 01:17:15;;;;;;;;;;;;;;;14.71;69.09;103688.13;1045127;28;649;-56
2021/12/17 01:18:10;;;;;;;;;;;;;;;14.72;68.79;103689.00;1040186;28;991;-53
2021/12/17 01:19:21;;;;;;;;;;;;;;;14.72;68.57;103683.63;1041589;28;835;-58
2021/12/17 01:20:26;;;;;;;;;;;;;;;14.71;68.68;103679.19;1045866;28;763;-57
2021/12/17 01:21:34;;;;;;;;;;;;;;;14.70;68.57;103682.81;1045296;28;629;-56
2021/12/17 01:22:55;;;;;;;;;;;;;;;14.70;68.94;103674.75;1045830;28;816;-58
2021/12/17 01:24:54;;;;;;;;;;;;;;;14.71;69.16;103692.63;1045270;28;765;-57
2021/12/17 01:35:46;;;;;;;;;;;;;;;14.70;68.46;103701.59;1045309;28;749;-58
2021/12/17 01:36:36;;;;;;;;;;;;;;;14.69;68.64;103705.25;1045204;28;812;-57
2021/12/17 01:40:56;;;;;;;;;;;;;;;14.69;68.35;103702.56;1045250;28;649;-57
2021/12/17 01:42:38;;;;;;;;;;;;;;;14.69;68.46;103700.72;1045196;28;687;-58
2021/12/17 01:43:29;;;;;;;;;;;;;;;14.69;68.44;103700.72;1045386;28;649;-58
2021/12/17 01:44:19;;;;;;;;;;;;;;;14.69;68.36;103708.78;1045248;28;610;-58
2021/12/17 01:45:10;;;;;;;;;;;;;;;14.70;69.05;103702.47;1045142;28;755;-59
2021/12/17 01:46:01;;;;;;;;;;;;;;;14.69;68.40;103705.25;1045218;28;692;-58
2021/12/17 01:46:53;;;;;;;;;;;;;;;14.68;68.45;103700.81;1045283;28;802;-58
2021/12/17 01:47:43;;;;;;;;;;;;;;;14.67;68.46;103705.31;1044055;28;637;-58
2021/12/17 01:48:53;;;;;;;;;;;;;;;14.67;68.55;103705.31;1045347;28;654;-58
2021/12/17 01:59:40;;;;;;;;;;;;;;;14.67;68.95;103702.63;1049391;28;991;-58
2021/12/17 02:00:35;;;;;;;;;;;;;;;14.66;68.98;103702.69;1048939;28;641;-58
2021/12/17 02:01:26;;;;;;;;;;;;;;;14.66;68.47;103702.69;1048860;28;668;-58
2021/12/17 02:02:17;;;;;;;;;;;;;;;14.65;68.86;103707.16;1048996;28;652;-58
2021/12/17 02:03:07;;;;;;;;;;;;;;;14.67;68.83;103715.16;1049816;28;906;-57
2021/12/17 02:03:57;;;;;;;;;;;;;;;14.66;68.55;103716.97;1049801;28;893;-58
2021/12/17 02:04:48;;;;;;;;;;;;;;;14.67;68.43;103717.84;1049231;28;648;-58
2021/12/17 02:05:39;;;;;;;;;;;;;;;14.67;68.37;103718.72;1049525;28;776;-57
2021/12/17 02:06:31;;;;;;;;;;;;;;;14.65;68.94;103712.53;1049320;28;684;-58
2021/12/17 02:07:21;;;;;;;;;;;;;;;14.64;68.40;103708.09;1049323;28;610;-58
2021/12/17 02:08:12;;;;;;;;;;;;;;;14.65;68.45;103709.84;1049449;28;819;-58
2021/12/17 02:09:02;;;;;;;;;;;;;;;14.65;68.80;103714.34;1049475;28;736;-58
2021/12/17 02:20:12;;;;;;;;;;;;;;;14.65;68.86;103711.66;1049916;28;684;-58
2021/12/17 02:21:49;;;;;;;;;;;;;;;14.63;68.80;103709.03;1049300;28;708;-57
2021/12/17 02:28:45;;;;;;;;;;;;;;;14.62;68.30;103707.28;1045843;28;765;-59
2021/12/17 02:30:02;;;;;;;;;;;;;;;14.62;68.49;103704.59;1046065;28;665;-59
2021/12/17 02:31:17;;;;;;;;;;;;;;;14.61;68.94;103708.19;1045958;28;704;-57
2021/12/17 02:32:07;;;;;;;;;;;;;;;14.61;68.47;103704.66;1045860;28;1964;-58
2021/12/17 02:32:58;;;;;;;;;;;;;;;14.62;68.37;103706.41;1045848;28;662;-59
2021/12/17 02:33:48;;;;;;;;;;;;;;;14.62;68.43;103706.41;1046047;28;660;-59
2021/12/17 02:35:48;;;;;;;;;;;;;;;14.62;68.71;103707.28;1046605;28;629;-56
2021/12/17 02:36:39;;;;;;;;;;;;;;;14.63;68.29;103711.72;1045897;28;762;-55
2021/12/17 02:37:31;;;;;;;;;;;;;;;14.62;68.45;103706.41;1046059;28;1733;-56
2021/12/17 02:38:22;;;;;;;;;;;;;;;14.62;69.04;103699.22;1047133;28;1446;-56
2021/12/17 02:45:32;;;;;;;;;;;;;;;14.63;68.65;103702.78;1040858;28;819;-52
2021/12/17 02:46:08;;;;;;;;;;;;;;;14.62;68.59;103701.03;1041748;28;895;-56
2021/12/17 02:46:59;;;;;;;;;;;;;;;14.62;68.32;103695.66;1042000;28;606;-52
2021/12/17 02:47:49;;;;;;;;;;;;;;;14.61;68.50;103700.16;1041891;28;1009;-50
2021/12/17 02:48:40;;;;;;;;;;;;;;;14.61;68.18;103693.91;1046268;28;664;-56
2021/12/17 02:49:30;;;;;;;;;;;;;;;14.59;68.89;103699.31;1046038;28;1553;-58
2021/12/17 02:50:20;;;;;;;;;;;;;;;14.59;68.38;103692.16;1049940;28;637;-57
2021/12/17 02:51:11;;;;;;;;;;;;;;;14.59;68.45;103697.53;1049928;28;665;-55
2021/12/17 02:52:01;;;;;;;;;;;;;;;14.60;68.20;103695.72;1045462;28;809;-56
2021/12/17 02:52:52;;;;;;;;;;;;;;;14.59;68.53;103692.16;1045702;28;649;-55
2021/12/17 02:53:42;;;;;;;;;;;;;;;14.61;68.77;103696.59;1049205;28;828;-57
2021/12/17 02:54:33;;;;;;;;;;;;;;;14.60;68.28;103693.03;1049965;28;658;-53
2021/12/17 02:55:23;;;;;;;;;;;;;;;14.59;68.31;103688.59;1050067;28;625;-56
2021/12/17 02:56:13;;;;;;;;;;;;;;;14.59;68.18;103688.59;1045941;28;724;-56
2021/12/17 02:57:04;;;;;;;;;;;;;;;14.60;68.67;103698.41;1045810;28;609;-55
2021/12/17 02:57:54;;;;;;;;;;;;;;;14.58;68.36;103690.41;1045251;28;737;-57
2021/12/17 02:58:45;;;;;;;;;;;;;;;14.58;68.78;103693.09;1045432;28;685;-53
2021/12/17 02:59:35;;;;;;;;;;;;;;;14.59;68.53;103700.22;1045186;28;742;-57
2021/12/17 03:00:25;;;;;;;;;;;;;;;14.60;68.22;103698.41;1045325;28;807;-55
2021/12/17 03:01:16;;;;;;;;;;;;;;;14.57;68.84;103694.00;1045911;28;712;-56
2021/12/17 03:02:10;;;;;;;;;;;;;;;14.58;68.41;103698.44;1048596;28;2074;-57
2021/12/17 03:03:00;;;;;;;;;;;;;;;14.59;68.78;103696.66;1049835;28;751;-56
2021/12/17 03:03:51;;;;;;;;;;;;;;;14.59;68.29;103688.59;1049354;28;686;-56
2021/12/17 03:04:41;;;;;;;;;;;;;;;14.59;68.62;103693.97;1050501;28;691;-56
2021/12/17 03:05:33;;;;;;;;;;;;;;;14.58;68.28;103690.41;1050150;28;703;-55
2021/12/17 03:06:23;;;;;;;;;;;;;;;14.59;68.62;103696.66;1048181;28;826;-55
2021/12/17 03:07:14;;;;;;;;;;;;;;;14.58;68.61;103689.53;1049130;28;700;-57
2021/12/17 03:08:06;;;;;;;;;;;;;;;14.59;68.67;103689.47;1049252;28;1003;-56
2021/12/17 03:08:56;;;;;;;;;;;;;;;14.57;68.78;103683.28;1048607;28;743;-55
2021/12/17 03:10:02;;;;;;;;;;;;;;;14.58;68.32;103689.53;1050555;28;685;-55
2021/12/17 03:10:53;;;;;;;;;;;;;;;14.58;68.39;103689.53;1049269;28;842;-51
2021/12/17 03:11:43;;;;;;;;;;;;;;;14.56;68.34;103689.56;1049972;28;728;-57
2021/12/17 03:12:50;;;;;;;;;;;;;;;14.56;68.88;103694.06;1049894;28;1914;-55
2021/12/17 03:13:43;;;;;;;;;;;;;;;14.57;68.26;103690.44;1048375;28;712;-57
2021/12/17 03:14:40;;;;;;;;;;;;;;;14.56;68.60;103686.91;1045490;28;886;-57
2021/12/17 03:15:40;;;;;;;;;;;;;;;14.56;68.59;103696.75;1045663;28;676;-57
2021/12/17 03:16:36;;;;;;;;;;;;;;;14.56;68.37;103691.38;1049270;28;705;-56
2021/12/17 03:24:11;;;;;;;;;;;;;;;14.57;68.27;103693.13;1050001;28;723;-57
2021/12/17 03:25:01;;;;;;;;;;;;;;;14.56;68.32;103697.63;1050020;28;842;-57
2021/12/17 03:25:52;;;;;;;;;;;;;;;14.56;68.23;103692.25;1050082;28;694;-57
2021/12/17 03:26:42;;;;;;;;;;;;;;;14.57;68.77;103693.13;1045460;28;736;-57
2021/12/17 03:27:33;;;;;;;;;;;;;;;14.56;68.77;103691.38;1041296;28;1902;-59
2021/12/17 03:28:23;;;;;;;;;;;;;;;14.56;68.18;103697.63;1041738;28;1180;-57
2021/12/17 03:29:14;;;;;;;;;;;;;;;14.56;68.81;103691.38;1041743;28;866;-57
2021/12/17 03:30:04;;;;;;;;;;;;;;;14.56;68.74;103691.38;1042482;28;797;-57
2021/12/17 03:30:55;;;;;;;;;;;;;;;14.56;68.32;103692.25;1045795;28;800;-57
2021/12/17 03:31:46;;;;;;;;;;;;;;;14.56;68.30;103691.38;1045179;28;765;-56
2021/12/17 03:32:36;;;;;;;;;;;;;;;14.54;68.56;103688.75;1045112;28;1962;-57
2021/12/17 03:33:27;;;;;;;;;;;;;;;14.55;68.30;103689.63;1041908;28;950;-58
2021/12/17 03:34:21;;;;;;;;;;;;;;;14.55;68.15;103684.25;1041411;28;685;-56
2021/12/17 03:35:11;;;;;;;;;;;;;;;14.54;68.89;103685.19;1041958;28;819;-56
2021/12/17 03:36:02;;;;;;;;;;;;;;;14.54;68.74;103687.88;1045933;28;706;-56
2021/12/17 03:36:57;;;;;;;;;;;;;;;14.55;68.38;103692.31;1041948;28;694;-57
2021/12/17 03:37:47;;;;;;;;;;;;;;;14.55;68.15;103695.88;1041802;28;884;-56
2021/12/17 03:38:38;;;;;;;;;;;;;;;14.54;68.74;103687.88;1045793;28;609;-56
2021/12/17 03:39:30;;;;;;;;;;;;;;;14.54;68.38;103693.25;1045446;28;791;-55
2021/12/17 03:40:21;;;;;;;;;;;;;;;14.54;68.15;103694.13;1045562;28;716;-57
2021/12/17 03:42:07;;;;;;;;;;;;;;;14.54;68.68;103691.44;1049188;28;959;-57
2021/12/17 03:43:02;;;;;;;;;;;;;;;14.54;68.44;103695.94;1049324;28;700;-56
2021/12/17 03:43:53;;;;;;;;;;;;;;;14.54;68.46;103698.59;1049146;28;887;-58
2021/12/17 03:44:44;;;;;;;;;;;;;;;14.53;68.62;103691.50;1049619;28;752;-58
2021/12/17 03:45:34;;;;;;;;;;;;;;;14.51;68.85;103699.59;1049905;28;823;-58
2021/12/17 03:46:25;;;;;;;;;;;;;;;14.52;68.79;103700.47;1049951;28;713;-57
2021/12/17 03:47:15;;;;;;;;;;;;;;;14.52;68.93;103695.09;1049774;28;718;-58
2021/12/17 03:48:06;;;;;;;;;;;;;;;14.53;68.37;103688.81;1049818;28;733;-58
2021/12/17 03:48:56;;;;;;;;;;;;;;;14.53;68.37;103692.38;1049794;28;720;-57
2021/12/17 03:49:48;;;;;;;;;;;;;;;14.54;68.68;103693.25;1046921;28;1552;-58
2021/12/17 03:50:38;;;;;;;;;;;;;;;14.53;68.31;103689.69;1045126;28;656;-57
2021/12/17 03:51:29;;;;;;;;;;;;;;;14.53;68.33;103692.38;1045293;28;657;-56
2021/12/17 03:52:19;;;;;;;;;;;;;;;14.54;68.36;103693.25;1044972;28;1957;-58
2021/12/17 03:53:10;;;;;;;;;;;;;;;14.53;68.69;103688.81;1045120;28;968;-57
2021/12/17 03:54:00;;;;;;;;;;;;;;;14.54;68.75;103695.94;1045139;28;775;-57
2021/12/17 03:54:51;;;;;;;;;;;;;;;14.54;68.63;103701.28;1045224;28;753;-57
2021/12/17 03:55:41;;;;;;;;;;;;;;;14.53;68.28;103699.53;1044857;28;724;-56
2021/12/17 03:56:31;;;;;;;;;;;;;;;14.54;68.59;103698.59;1044988;28;684;-56
2021/12/17 03:57:22;;;;;;;;;;;;;;;14.53;68.61;103697.72;1040666;28;693;-55
2021/12/17 03:58:12;;;;;;;;;;;;;;;14.51;68.50;103701.44;1041719;28;676;-56
2021/12/17 03:59:10;;;;;;;;;;;;;;;14.53;68.44;103696.84;1049692;28;1669;-56
2021/12/17 04:00:00;;;;;;;;;;;;;;;14.52;68.24;103693.28;1047953;28;622;-54
2021/12/17 04:00:51;;;;;;;;;;;;;;;14.54;68.83;103698.59;1049688;28;866;-56
2021/12/17 04:01:41;;;;;;;;;;;;;;;14.53;68.18;103697.72;1049206;28;621;-54
2021/12/17 04:02:31;;;;;;;;;;;;;;;14.53;68.44;103697.72;1049644;28;929;-54
2021/12/17 04:03:22;;;;;;;;;;;;;;;14.53;68.69;103692.38;1049588;28;688;-56
2021/12/17 04:04:12;;;;;;;;;;;;;;;14.53;68.52;103683.44;1051015;28;1318;-54
2021/12/17 04:05:03;;;;;;;;;;;;;;;14.52;68.92;103679.88;1053444;28;880;-56
2021/12/17 04:05:53;;;;;;;;;;;;;;;14.53;68.01;103686.13;1053349;28;703;-55
2021/12/17 04:06:43;;;;;;;;;;;;;;;14.53;68.19;103688.81;1053453;28;874;-55
2021/12/17 04:07:34;;;;;;;;;;;;;;;14.52;68.71;103681.69;1053557;28;636;-54
2021/12/17 04:08:24;;;;;;;;;;;;;;;14.52;68.67;103693.28;1053374;28;1416;-56
2021/12/17 04:09:19;;;;;;;;;;;;;;;14.52;68.36;103695.97;1053404;28;824;-50
2021/12/17 04:10:10;;;;;;;;;;;;;;;14.53;68.31;103683.44;1053345;28;742;-54
2021/12/17 04:11:05;;;;;;;;;;;;;;;14.52;68.37;103687.06;1053201;28;796;-55
2021/12/17 04:11:56;;;;;;;;;;;;;;;14.51;68.33;103688.84;1053412;28;748;-52
2021/12/17 04:13:01;;;;;;;;;;;;;;;14.52;68.33;103695.09;1053156;28;707;-51
2021/12/17 04:13:56;;;;;;;;;;;;;;;14.52;68.55;103689.72;1053883;28;711;-51
2021/12/17 04:14:48;;;;;;;;;;;;;;;14.53;68.65;103691.50;1053524;28;774;-53
2021/12/17 04:15:39;;;;;;;;;;;;;;;14.51;69.05;103691.53;1054033;28;916;-52
2021/12/17 04:16:32;;;;;;;;;;;;;;;14.51;67.97;103688.84;1053430;28;629;-53
2021/12/17 04:17:25;;;;;;;;;;;;;;;14.51;68.49;103694.22;1053228;28;852;-52
2021/12/17 04:18:15;;;;;;;;;;;;;;;14.51;68.18;103690.69;1053145;28;1824;-56
2021/12/17 04:19:06;;;;;;;;;;;;;;;14.52;68.71;103692.41;1050290;28;791;-53
2021/12/17 04:19:56;;;;;;;;;;;;;;;14.51;68.49;103688.84;1048536;28;709;-52
2021/12/17 04:20:47;;;;;;;;;;;;;;;14.50;68.56;103687.13;1048620;28;682;-54
2021/12/17 04:21:37;;;;;;;;;;;;;;;14.50;68.32;103691.63;1048330;28;699;-52
2021/12/17 04:22:28;;;;;;;;;;;;;;;14.53;68.66;103702.22;1050370;28;652;-51
2021/12/17 04:23:18;;;;;;;;;;;;;;;14.50;68.24;103691.63;1048303;28;943;-52
2021/12/17 04:24:08;;;;;;;;;;;;;;;14.51;68.58;103701.44;1048570;28;703;-53
2021/12/17 04:24:59;;;;;;;;;;;;;;;14.51;68.20;103701.44;1048829;28;766;-55
2021/12/17 04:25:49;;;;;;;;;;;;;;;14.50;68.19;103697.00;1048391;28;854;-55
2021/12/17 04:26:40;;;;;;;;;;;;;;;14.49;68.57;103698.78;1048794;28;665;-57
2021/12/17 04:27:30;;;;;;;;;;;;;;;14.49;68.50;103698.78;1048546;28;768;-54
2021/12/17 04:28:21;;;;;;;;;;;;;;;14.48;68.75;103694.38;1048669;28;676;-56
2021/12/17 04:29:12;;;;;;;;;;;;;;;14.50;68.21;103700.56;1048428;28;694;-55
2021/12/17 04:30:02;;;;;;;;;;;;;;;14.48;68.63;103694.38;1049518;28;926;-54
2021/12/17 04:30:53;;;;;;;;;;;;;;;14.48;68.36;103689.00;1048562;28;790;-56
2021/12/17 04:31:50;;;;;;;;;;;;;;;14.50;68.84;103688.94;1049754;28;898;-53
2021/12/17 04:32:40;;;;;;;;;;;;;;;14.49;68.65;103690.75;1049656;28;633;-56
2021/12/17 04:33:31;;;;;;;;;;;;;;;14.50;68.84;103688.94;1050255;28;1796;-56
2021/12/17 04:34:21;;;;;;;;;;;;;;;14.49;68.62;103685.38;1053445;28;1919;-54
2021/12/17 04:35:11;;;;;;;;;;;;;;;14.49;68.25;103684.50;1051088;28;1893;-53
2021/12/17 04:36:02;;;;;;;;;;;;;;;14.49;68.13;103688.06;1049689;28;746;-57
2021/12/17 04:36:55;;;;;;;;;;;;;;;14.49;68.15;103687.19;1049681;28;808;-57
2021/12/17 04:37:46;;;;;;;;;;;;;;;14.49;68.29;103688.06;1048625;28;728;-54
2021/12/17 04:38:36;;;;;;;;;;;;;;;14.49;68.52;103695.25;1050270;28;629;-55
2021/12/17 04:39:27;;;;;;;;;;;;;;;14.49;68.37;103692.56;1048638;28;721;-55
2021/12/17 04:40:20;;;;;;;;;;;;;;;14.49;68.66;103693.44;1050192;28;936;-58
2021/12/17 04:42:59;;;;;;;;;;;;;;;14.48;68.20;103693.47;1046200;28;779;-57
2021/12/17 04:43:39;;;;;;;;;;;;;;;14.47;68.42;103691.72;1050647;28;1114;-55
2021/12/17 04:44:34;;;;;;;;;;;;;;;14.46;68.35;103688.16;1051382;28;2026;-56
2021/12/17 04:45:25;;;;;;;;;;;;;;;14.47;68.28;103681.00;1053016;28;766;-57
2021/12/17 04:46:26;;;;;;;;;;;;;;;14.47;67.98;103689.03;1053221;28;720;-55
2021/12/17 04:57:19;;;;;;;;;;;;;;;14.46;68.27;103685.50;1040856;28;688;-54
2021/12/17 04:57:51;;;;;;;;;;;;;;;14.44;68.55;103692.72;1049023;28;1606;-56
2021/12/17 04:58:42;;;;;;;;;;;;;;;14.46;68.33;103692.66;1049127;28;757;-56
2021/12/17 04:59:32;;;;;;;;;;;;;;;14.46;67.95;103689.97;1050141;28;686;-57
2021/12/17 05:00:24;;;;;;;;;;;;;;;14.46;68.30;103698.03;1049023;28;664;-54
2021/12/17 05:01:16;;;;;;;;;;;;;;;14.45;68.23;103690.91;1048849;28;834;-56
2021/12/17 05:02:06;;;;;;;;;;;;;;;14.44;68.15;103692.72;1048885;28;740;-56
2021/12/17 05:02:57;;;;;;;;;;;;;;;14.45;68.56;103686.41;1049060;28;734;-59
2021/12/17 05:03:48;;;;;;;;;;;;;;;14.46;68.08;103693.53;1049043;28;718;-54
2021/12/17 05:04:38;;;;;;;;;;;;;;;14.45;68.29;103683.72;1049471;28;893;-56
2021/12/17 05:05:30;;;;;;;;;;;;;;;14.45;68.09;103680.16;1048892;28;925;-56
2021/12/17 05:06:28;;;;;;;;;;;;;;;14.45;68.55;103683.72;1049098;28;739;-55
2021/12/17 05:07:18;;;;;;;;;;;;;;;14.45;67.94;103688.22;1048854;28;930;-53
2021/12/17 05:08:13;;;;;;;;;;;;;;;14.44;68.11;103676.63;1048897;28;905;-55
2021/12/17 05:09:15;;;;;;;;;;;;;;;14.45;68.24;103685.53;1049099;28;762;-56
2021/12/17 05:18:51;;;;;;;;;;;;;;;14.72;67.73;103699.75;1050045;28;700;-56
2021/12/17 05:19:53;;;;;;;;;;;;;;;14.75;67.75;103697.84;1048184;28;860;-56
2021/12/17 05:20:49;;;;;;;;;;;;;;;14.80;67.18;103694.97;1048300;28;665;-56
2021/12/17 05:21:40;;;;;;;;;;;;;;;14.84;67.06;103699.31;1049456;28;621;-56
2021/12/17 05:22:30;;;;;;;;;;;;;;;14.86;67.52;103692.97;1049520;28;1601;-56
2021/12/17 05:23:23;;;;;;;;;;;;;;;14.89;67.49;103694.63;1049324;28;1434;-57
2021/12/17 05:24:14;;;;;;;;;;;;;;;14.91;67.14;103698.13;1049463;28;839;-57
2021/12/17 05:25:04;;;;;;;;;;;;;;;14.94;67.55;103698.03;1049556;28;752;-56
2021/12/17 05:25:55;;;;;;;;;;;;;;;14.97;67.01;103708.66;1049654;28;732;-54
2021/12/17 05:26:45;;;;;;;;;;;;;;;14.99;67.33;103708.59;1049427;28;788;-56
2021/12/17 05:27:35;;;;;;;;;;;;;;;15.01;67.31;103712.97;1049463;28;644;-56
2021/12/17 05:28:26;;;;;;;;;;;;;;;15.03;67.57;103708.44;1049488;28;792;-54
2021/12/17 05:29:16;;;;;;;;;;;;;;;15.05;67.51;103708.38;1049490;28;641;-56
2021/12/17 05:30:07;;;;;;;;;;;;;;;15.06;67.07;103705.59;1049401;28;695;-57
2021/12/17 05:30:57;;;;;;;;;;;;;;;15.08;67.20;103705.53;1049402;28;768;-55
2021/12/17 05:31:48;;;;;;;;;;;;;;;15.09;67.36;103705.50;1049463;28;747;-56
2021/12/17 05:32:38;;;;;;;;;;;;;;;15.10;66.88;103699.19;1049319;28;1890;-56
2021/12/17 05:33:28;;;;;;;;;;;;;;;15.11;66.86;103705.44;1049424;28;792;-54
2021/12/17 05:34:19;;;;;;;;;;;;;;;15.11;67.27;103698.25;1049456;28;910;-54
2021/12/17 05:35:09;;;;;;;;;;;;;;;15.13;67.19;103704.44;1049511;28;848;-55
2021/12/17 05:36:00;;;;;;;;;;;;;;;15.16;66.94;103708.81;1049634;28;735;-56
2021/12/17 05:36:50;;;;;;;;;;;;;;;15.16;67.41;103709.69;1049289;28;863;-52
2021/12/17 05:37:40;;;;;;;;;;;;;;;15.18;67.22;103701.59;1049427;28;1061;-56
2021/12/17 05:38:31;;;;;;;;;;;;;;;15.19;67.12;103704.22;1049407;28;831;-52
2021/12/17 05:39:21;;;;;;;;;;;;;;;15.19;67.44;103706.03;1049523;28;679;-56
2021/12/17 05:40:12;;;;;;;;;;;;;;;15.20;67.35;103707.78;1050514;28;1891;-57
2021/12/17 05:41:02;;;;;;;;;;;;;;;15.20;67.31;103705.97;1053276;28;1702;-57
2021/12/17 05:41:53;;;;;;;;;;;;;;;15.20;66.85;103703.28;1045561;28;692;-55
2021/12/17 05:42:43;;;;;;;;;;;;;;;15.20;67.51;103721.22;1045522;28;869;-54
2021/12/17 05:43:37;;;;;;;;;;;;;;;15.20;66.73;103715.84;1049935;28;690;-55
2021/12/17 05:44:28;;;;;;;;;;;;;;;15.19;67.28;103709.59;1049365;28;641;-56
2021/12/17 05:45:32;;;;;;;;;;;;;;;15.19;67.52;103703.34;1049407;28;779;-57
2021/12/17 05:47:05;;;;;;;;;;;;;;;15.16;67.02;103707.00;1049358;28;672;-54
2021/12/17 05:47:36;;;;;;;;;;;;;;;15.17;67.10;103702.53;1049927;28;708;-57
2021/12/17 05:48:26;;;;;;;;;;;;;;;15.17;67.60;103699.84;1049344;28;630;-53
2021/12/17 05:49:17;;;;;;;;;;;;;;;15.15;67.48;103709.75;1049297;28;1552;-56
2021/12/17 05:50:07;;;;;;;;;;;;;;;15.13;67.88;103707.13;1053029;28;1544;-55
2021/12/17 05:50:58;;;;;;;;;;;;;;;15.12;68.11;103712.56;1047280;28;1551;-58
2021/12/17 05:51:48;;;;;;;;;;;;;;;15.13;67.99;103714.31;1045542;28;786;-59
2021/12/17 05:52:39;;;;;;;;;;;;;;;15.13;68.03;103714.31;1049993;28;1894;-57
2021/12/17 05:53:29;;;;;;;;;;;;;;;15.11;67.74;103711.69;1048865;28;950;-56
2021/12/17 05:54:19;;;;;;;;;;;;;;;15.12;67.72;103713.44;1048702;28;696;-61
2021/12/17 05:55:10;;;;;;;;;;;;;;;15.11;67.62;103705.44;1048867;28;833;-57
2021/12/17 05:56:00;;;;;;;;;;;;;;;15.10;68.10;103704.56;1048802;28;713;-56
2021/12/17 05:56:52;;;;;;;;;;;;;;;15.10;68.12;103711.72;1048828;28;811;-51
2021/12/17 05:57:42;;;;;;;;;;;;;;;15.07;68.39;103712.72;1049813;28;929;-55
2021/12/17 05:58:32;;;;;;;;;;;;;;;15.08;68.14;103717.16;1048738;28;772;-52
2021/12/17 05:59:23;;;;;;;;;;;;;;;15.10;68.00;103719.78;1048904;28;708;-55
2021/12/17 06:00:13;;;;;;;;;;;;;;;15.10;67.74;103714.41;1050208;28;1916;-55
2021/12/17 06:01:04;;;;;;;;;;;;;;;15.11;68.34;103717.06;1049455;28;720;-55
2021/12/17 06:01:55;;;;;;;;;;;;;;;15.14;68.44;103724.13;1049308;28;1838;-57
2021/12/17 06:02:45;;;;;;;;;;;;;;;15.12;68.03;103709.88;1049051;28;635;-55
2021/12/17 06:03:36;;;;;;;;;;;;;;;15.13;68.59;103719.69;1049381;28;819;-55
2021/12/17 06:04:26;;;;;;;;;;;;;;;15.12;68.25;103717.94;1049141;28;1283;-53
2021/12/17 06:05:17;;;;;;;;;;;;;;;15.11;68.41;103717.06;1052469;28;1856;-56
2021/12/17 06:06:07;;;;;;;;;;;;;;;15.09;68.58;103718.91;1053546;28;771;-56
2021/12/17 06:06:57;;;;;;;;;;;;;;;15.09;68.24;103716.22;1053630;28;770;-54
2021/12/17 06:07:48;;;;;;;;;;;;;;;15.09;68.14;103718.91;1053460;28;746;-55
2021/12/17 06:08:38;;;;;;;;;;;;;;;15.08;68.23;103721.66;1052544;28;2256;-53
2021/12/17 06:09:29;;;;;;;;;;;;;;;15.07;68.50;103722.59;1054075;28;774;-55
2021/12/17 06:10:19;;;;;;;;;;;;;;;15.08;68.67;103716.28;1051819;28;1645;-53
2021/12/17 06:11:09;;;;;;;;;;;;;;;15.07;68.54;103722.59;1049935;28;1313;-53
2021/12/17 06:12:00;;;;;;;;;;;;;;;15.07;68.06;103726.16;1052148;28;1299;-56
2021/12/17 06:12:50;;;;;;;;;;;;;;;15.07;68.41;103727.97;1049787;28;1375;-56
2021/12/17 06:13:41;;;;;;;;;;;;;;;15.07;68.30;103725.28;1052533;28;1493;-55
2021/12/17 06:14:31;;;;;;;;;;;;;;;15.08;68.19;103721.66;1051833;28;1387;-55
2021/12/17 06:15:22;;;;;;;;;;;;;;;15.07;68.07;103722.59;1051898;28;1473;-52
2021/12/17 06:16:12;;;;;;;;;;;;;;;15.06;67.86;103716.34;1052806;28;1363;-57
2021/12/17 06:17:02;;;;;;;;;;;;;;;15.06;67.85;103716.34;1052237;28;1493;-55
2021/12/17 06:17:54;;;;;;;;;;;;;;;15.05;67.96;103721.81;1052891;28;1479;-52
2021/12/17 06:18:44;;;;;;;;;;;;;;;15.07;68.48;103715.41;1051639;28;1489;-55
2021/12/17 06:19:34;;;;;;;;;;;;;;;15.06;67.81;103715.47;1050413;28;1674;-55
2021/12/17 06:20:25;;;;;;;;;;;;;;;15.08;68.24;103718.97;1050081;28;1589;-55
2021/12/17 06:21:17;;;;;;;;;;;;;;;15.08;68.09;103716.28;1051958;28;1411;-56